Time;durP1;ratioP1;P1;durP2;ratioP2;P2;SDS_P1;SDS_P2;PMS_P1;PMS_P2;Temp;Humidity;BMP_temperature;BMP_pressure;BME280_temperature;BME280_humidity;BME280_pressure;Samples;Min_cycle;Max_cycle;Signal;HPM_P1;HPM_P2
2021/10/05 00:00:07;;;;;;;10.45;6.45;;;;;;;14.73;93.67;96008.78;5057575;28;20228;-73
2021/10/05 00:02:34;;;;;;;14.20;6.65;;;;;;;14.70;93.11;96025.13;5056998;28;20598;-73
2021/10/05 00:05:01;;;;;;;11.82;7.63;;;;;;;14.68;93.26;96021.03;5056804;28;20208;-73
2021/10/05 00:07:27;;;;;;;11.80;7.25;;;;;;;14.76;93.13;96024.28;5056798;28;20552;-73
2021/10/05 00:09:54;;;;;;;19.95;7.45;;;;;;;14.87;93.27;96023.66;5057445;28;20747;-72
2021/10/05 00:12:23;;;;;;;11.40;7.32;;;;;;;14.94;94.29;96019.16;5056422;28;20200;-73
2021/10/05 00:14:50;;;;;;;14.35;7.65;;;;;;;14.85;94.51;96001.78;5056782;28;20208;-73
2021/10/05 00:17:17;;;;;;;13.95;7.43;;;;;;;14.82;94.12;96002.22;5056491;28;20212;-72
2021/10/05 00:19:44;;;;;;;11.40;7.13;;;;;;;14.81;93.60;96000.59;5056714;28;20231;-73
2021/10/05 00:22:11;;;;;;;11.80;7.70;;;;;;;14.79;93.99;95997.34;5056083;28;20363;-73
2021/10/05 00:24:37;;;;;;;13.27;7.53;;;;;;;14.84;93.72;95994.88;5057186;28;20231;-73
2021/10/05 00:27:04;;;;;;;13.63;7.53;;;;;;;14.88;93.65;95990.78;5055606;28;20208;-73
2021/10/05 00:29:32;;;;;;;12.32;7.70;;;;;;;14.96;93.80;95985.25;5055881;28;20196;-73
2021/10/05 00:31:58;;;;;;;12.18;7.43;;;;;;;14.92;93.39;95976.06;5056928;28;20539;-73
2021/10/05 00:34:25;;;;;;;11.65;7.68;;;;;;;14.77;93.58;95972.84;5056534;28;20216;-73
2021/10/05 00:36:52;;;;;;;13.18;7.97;;;;;;;14.66;93.98;95968.22;5055481;28;20303;-73
2021/10/05 00:39:19;;;;;;;13.13;8.25;;;;;;;14.74;94.88;95962.66;5056625;28;21170;-73
2021/10/05 00:41:47;;;;;;;13.13;8.00;;;;;;;14.74;93.46;95967.97;5056716;28;20211;-73
2021/10/05 00:44:13;;;;;;;12.70;7.85;;;;;;;14.76;93.78;95959.81;5056118;28;20224;-73
2021/10/05 00:46:41;;;;;;;12.73;7.82;;;;;;;14.82;93.61;95959.78;5055590;28;20205;-73
2021/10/05 00:49:08;;;;;;;13.48;8.43;;;;;;;14.68;93.66;95954.72;5055704;28;20211;-73
2021/10/05 00:51:34;;;;;;;13.10;8.15;;;;;;;14.60;93.69;95948.84;5055938;28;20216;-73
2021/10/05 00:54:01;;;;;;;12.93;7.95;;;;;;;14.50;94.37;95956.41;5056353;28;20723;-73
2021/10/05 00:56:27;;;;;;;13.20;8.17;;;;;;;14.72;93.37;95958.59;5055130;28;20207;-73
2021/10/05 00:58:54;;;;;;;15.02;8.77;;;;;;;14.76;93.99;95965.09;5056694;28;21060;-73
2021/10/05 01:01:20;;;;;;;18.42;8.63;;;;;;;14.72;94.56;95948.78;5055656;28;20204;-73
2021/10/05 01:03:48;;;;;;;14.75;8.82;;;;;;;14.91;94.67;95949.75;5056222;28;20235;-73
2021/10/05 01:06:15;;;;;;;15.63;9.43;;;;;;;14.75;93.75;95937.78;5055039;28;20576;-73
2021/10/05 01:08:41;;;;;;;15.55;9.13;;;;;;;14.68;94.78;95934.31;5056316;28;20683;-73
2021/10/05 01:11:08;;;;;;;16.17;8.93;;;;;;;14.72;94.62;95922.25;5055950;28;20208;-73
2021/10/05 01:13:34;;;;;;;14.70;8.68;;;;;;;14.71;94.87;95931.28;5056730;28;20223;-73
2021/10/05 01:16:01;;;;;;;13.77;9.02;;;;;;;14.87;93.21;95938.75;5055554;28;20231;-73
2021/10/05 01:18:28;;;;;;;14.75;8.88;;;;;;;14.68;93.46;95929.00;5055052;28;20204;-73
2021/10/05 01:20:57;;;;;;;16.90;8.50;;;;;;;15.03;93.64;95922.38;5056915;28;20231;-73
2021/10/05 01:23:25;;;;;;;17.08;8.57;;;;;;;14.97;94.01;95917.06;5057153;28;20235;-73
2021/10/05 01:25:52;;;;;;;15.48;9.20;;;;;;;14.89;93.61;95910.19;5059412;28;20683;-73
2021/10/05 01:28:19;;;;;;;17.95;9.25;;;;;;;14.95;93.53;95901.34;5059822;28;20204;-73
2021/10/05 01:30:47;;;;;;;15.30;9.00;;;;;;;14.79;94.03;95901.84;5060075;28;20204;-73
2021/10/05 01:33:14;;;;;;;17.02;9.50;;;;;;;14.73;93.56;95897.38;5059243;28;20227;-73
2021/10/05 01:35:40;;;;;;;20.65;8.95;;;;;;;14.67;93.87;95877.00;5058920;28;20223;-73
2021/10/05 01:38:09;;;;;;;18.30;9.23;;;;;;;14.89;94.06;95869.56;5059385;28;20964;-73
2021/10/05 01:40:35;;;;;;;17.70;9.88;;;;;;;14.75;93.79;95855.56;5059562;28;20229;-73
2021/10/05 01:43:02;;;;;;;18.35;10.35;;;;;;;14.66;94.41;95840.91;5059596;28;20239;-73
2021/10/05 01:45:30;;;;;;;18.38;10.40;;;;;;;14.56;95.27;95829.13;5059446;28;20240;-73
2021/10/05 01:47:56;;;;;;;16.95;10.23;;;;;;;14.68;94.89;95832.75;5059629;28;21267;-73
2021/10/05 01:50:23;;;;;;;20.48;10.52;;;;;;;14.65;94.15;95836.63;5059540;28;20737;-73
2021/10/05 01:52:50;;;;;;;17.40;10.38;;;;;;;14.70;94.28;95839.47;5059631;28;20232;-73
2021/10/05 01:55:17;;;;;;;21.63;11.35;;;;;;;14.77;94.64;95834.91;5059722;28;20211;-73
2021/10/05 01:57:44;;;;;;;21.50;11.65;;;;;;;14.66;94.61;95822.34;5058630;28;20200;-73
2021/10/05 02:00:11;;;;;;;18.83;10.25;;;;;;;14.59;94.24;95811.97;5059296;28;20235;-73
2021/10/05 02:02:38;;;;;;;21.58;10.90;;;;;;;14.29;95.54;95810.88;5059456;28;20219;-73
2021/10/05 02:05:06;;;;;;;18.13;10.43;;;;;;;14.29;96.01;95802.94;5059656;28;20207;-73
2021/10/05 02:07:33;;;;;;;17.85;9.75;;;;;;;14.54;95.37;95811.81;5057720;28;20222;-73
2021/10/05 02:10:00;;;;;;;20.80;11.03;;;;;;;14.46;95.34;95804.06;5059335;28;20200;-73
2021/10/05 02:12:28;;;;;;;20.80;11.43;;;;;;;14.46;96.74;95804.06;5058962;28;20200;-73
2021/10/05 02:14:54;;;;;;;28.00;11.70;;;;;;;14.30;96.06;95799.25;5059336;28;20201;-73
2021/10/05 02:17:21;;;;;;;21.48;11.35;;;;;;;14.43;95.61;95796.56;5058427;28;20207;-73
2021/10/05 02:19:48;;;;;;;24.55;12.07;;;;;;;14.43;95.46;95799.19;5059105;28;21027;-73
2021/10/05 02:22:14;;;;;;;24.52;12.13;;;;;;;14.47;95.80;95795.91;5058756;28;20208;-73
2021/10/05 02:24:42;;;;;;;25.83;12.43;;;;;;;14.52;95.26;95796.09;5056070;28;20226;-73
2021/10/05 02:27:10;;;;;;;26.98;12.00;;;;;;;14.62;94.68;95795.66;5057858;28;20204;-73
2021/10/05 02:29:38;;;;;;;27.42;13.13;;;;;;;14.56;95.62;95799.13;5058669;28;20201;-73
2021/10/05 02:32:05;;;;;;;26.15;12.45;;;;;;;14.41;95.53;95802.06;5059507;28;20201;-73
2021/10/05 02:34:32;;;;;;;28.02;13.02;;;;;;;14.50;95.15;95786.72;5056837;28;21278;-73
2021/10/05 02:36:59;;;;;;;30.05;13.00;;;;;;;14.46;95.56;95780.22;5057829;28;20216;-73
2021/10/05 02:39:25;;;;;;;25.98;12.27;;;;;;;14.58;95.11;95768.72;5058119;28;20224;-73
2021/10/05 02:41:52;;;;;;;29.08;12.90;;;;;;;14.54;94.93;95764.09;5059291;28;20212;-73
2021/10/05 02:44:19;;;;;;;30.17;13.00;;;;;;;14.65;94.34;95783.59;5058175;28;20220;-73
2021/10/05 02:46:47;;;;;;;32.92;13.85;;;;;;;14.80;94.60;95781.47;5058220;28;20208;-73
2021/10/05 02:49:14;;;;;;;29.85;13.05;;;;;;;14.65;95.20;95786.25;5057836;28;20582;-73
2021/10/05 02:51:41;;;;;;;28.75;14.18;;;;;;;14.63;94.55;95787.47;5058382;28;20204;-73
2021/10/05 02:54:08;;;;;;;27.65;13.18;;;;;;;14.82;93.49;95783.91;5058231;28;20709;-73
2021/10/05 02:56:35;;;;;;;29.30;13.30;;;;;;;14.79;94.04;95782.50;5058072;28;20208;-73
2021/10/05 02:59:02;;;;;;;27.98;12.65;;;;;;;14.90;93.66;95776.47;5058484;28;20207;-73
2021/10/05 03:01:28;;;;;;;27.48;13.00;;;;;;;14.67;94.46;95772.75;5058132;28;20228;-73
2021/10/05 03:03:56;;;;;;;29.17;13.40;;;;;;;14.76;94.95;95780.25;5058299;28;20220;-73
2021/10/05 03:06:23;;;;;;;27.98;12.60;;;;;;;14.51;95.17;95765.31;5057308;28;20700;-73
2021/10/05 03:08:53;;;;;;;26.47;13.20;;;;;;;14.57;95.51;95766.31;5057821;28;20204;-73
2021/10/05 03:11:19;;;;;;;28.25;12.88;;;;;;;14.58;95.57;95771.38;5057700;28;20718;-73
2021/10/05 03:13:46;;;;;;;26.73;12.63;;;;;;;14.46;96.14;95777.56;5058002;28;20730;-73
2021/10/05 03:16:13;;;;;;;27.42;12.55;;;;;;;14.30;96.26;95775.41;5057450;28;20216;-73
2021/10/05 03:18:41;;;;;;;34.28;14.68;;;;;;;14.25;96.15;95785.81;5058239;28;20200;-73
2021/10/05 03:21:09;;;;;;;44.22;19.23;;;;;;;14.29;97.86;95797.63;5057534;28;20337;-73
2021/10/05 03:23:35;;;;;;;28.17;13.40;;;;;;;13.85;98.87;95794.91;5057347;28;20232;-73
2021/10/05 03:26:04;;;;;;;28.07;12.50;;;;;;;13.88;99.63;95780.44;5056622;28;20208;-73
2021/10/05 03:28:31;;;;;;;31.35;12.30;;;;;;;13.95;99.63;95771.44;5057241;28;20778;-73
2021/10/05 03:30:58;;;;;;;25.27;12.05;;;;;;;13.99;99.53;95773.44;5057690;28;20748;-73
2021/10/05 03:33:24;;;;;;;25.60;11.53;;;;;;;14.09;98.55;95773.84;5057494;28;20225;-73
2021/10/05 03:35:51;;;;;;;22.40;10.60;;;;;;;13.90;99.01;95775.72;5056849;28;20208;-73
2021/10/05 03:38:19;;;;;;;24.80;11.80;;;;;;;14.08;99.43;95779.38;5058285;28;20204;-73
2021/10/05 03:40:45;;;;;;;24.17;12.03;;;;;;;13.91;99.13;95782.66;5057336;28;20231;-73
2021/10/05 03:43:12;;;;;;;30.10;12.70;;;;;;;13.80;99.49;95792.06;5057600;28;20224;-73
2021/10/05 03:45:38;;;;;;;28.73;12.68;;;;;;;13.76;99.96;95790.84;5056269;28;20633;-73
2021/10/05 03:48:05;;;;;;;25.77;11.57;;;;;;;13.71;100.00;95777.41;5057508;28;20211;-72
2021/10/05 03:50:31;;;;;;;31.13;13.32;;;;;;;13.78;100.00;95778.19;5056864;28;20201;-73
2021/10/05 03:52:58;;;;;;;31.27;14.47;;;;;;;13.82;99.88;95774.09;5057311;28;20232;-73
2021/10/05 03:55:26;;;;;;;31.30;13.37;;;;;;;13.92;100.00;95765.75;5056596;28;20201;-75
2021/10/05 03:57:53;;;;;;;32.67;13.37;;;;;;;13.83;100.00;95767.00;5057094;28;20212;-75
2021/10/05 04:00:19;;;;;;;36.47;14.30;;;;;;;13.97;99.26;95756.13;5056783;28;20790;-75
2021/10/05 04:02:46;;;;;;;31.77;13.93;;;;;;;14.18;98.47;95756.69;5056893;28;20222;-76
2021/10/05 04:05:12;;;;;;;30.50;14.43;;;;;;;14.10;98.42;95766.72;5057211;28;20211;-75
2021/10/05 04:07:39;;;;;;;32.10;13.63;;;;;;;14.06;98.63;95770.78;5056588;28;20208;-75
2021/10/05 04:10:07;;;;;;;31.93;13.60;;;;;;;14.19;98.26;95776.06;5057012;28;21470;-75
2021/10/05 04:12:35;;;;;;;30.37;14.13;;;;;;;14.20;98.64;95769.75;5056364;28;20203;-75
2021/10/05 04:15:02;;;;;;;33.87;14.70;;;;;;;13.85;99.79;95765.75;5057050;28;20212;-75
2021/10/05 04:17:29;;;;;;;28.63;13.97;;;;;;;13.71;100.00;95769.47;5056313;28;20303;-75
2021/10/05 04:19:56;;;;;;;30.40;14.17;;;;;;;13.59;100.00;95754.41;5057390;28;20212;-75
2021/10/05 04:22:22;;;;;;;33.03;13.73;;;;;;;13.65;100.00;95764.19;5056329;28;20600;-75
2021/10/05 04:24:50;;;;;;;35.67;15.07;;;;;;;13.89;99.46;95753.72;5056559;28;20225;-75
2021/10/05 04:27:17;;;;;;;33.40;14.77;;;;;;;13.75;99.73;95762.72;5055828;28;20299;-75
2021/10/05 04:29:44;;;;;;;36.50;14.83;;;;;;;13.94;100.00;95759.22;5057059;28;20204;-75
2021/10/05 04:32:11;;;;;;;30.03;13.30;;;;;;;13.71;100.00;95755.38;5056559;28;20695;-75
2021/10/05 04:34:38;;;;;;;32.53;13.80;;;;;;;13.68;99.87;95746.06;5056742;28;20225;-75
2021/10/05 04:37:06;;;;;;;36.37;14.30;;;;;;;13.97;99.61;95745.53;5055469;28;20311;-75
2021/10/05 04:39:32;;;;;;;32.60;14.27;;;;;;;13.86;99.28;95753.31;5056851;28;20200;-75
2021/10/05 04:41:59;;;;;;;34.63;13.70;;;;;;;13.81;99.14;95746.00;5056047;28;20259;-75
2021/10/05 04:44:25;;;;;;;29.80;12.40;;;;;;;13.55;99.78;95758.50;5056403;28;20220;-75
2021/10/05 04:46:54;;;;;;;25.53;12.43;;;;;;;13.97;99.16;95764.09;5056326;28;20211;-75
2021/10/05 04:49:20;;;;;;;27.20;12.05;;;;;;;13.64;99.57;95763.34;5055500;28;20201;-75
2021/10/05 04:51:47;;;;;;;27.33;12.77;;;;;;;13.63;98.84;95767.03;5056444;28;20668;-75
2021/10/05 04:54:13;;;;;;;24.53;11.60;;;;;;;13.81;98.98;95767.19;5056954;28;20232;-75
2021/10/05 04:56:40;;;;;;;27.93;12.07;;;;;;;13.89;98.59;95760.88;5055179;28;20204;-75
2021/10/05 04:59:06;;;;;;;26.17;12.00;;;;;;;13.86;97.98;95761.25;5055386;28;20208;-75
2021/10/05 05:01:33;;;;;;;25.97;11.87;;;;;;;13.97;97.03;95772.03;5057376;28;20216;-75
2021/10/05 05:04:01;;;;;;;29.20;12.13;;;;;;;14.44;96.43;95769.03;5055851;28;20608;-75
2021/10/05 05:06:27;;;;;;;25.97;11.17;;;;;;;14.31;95.52;95772.53;5055104;28;20204;-75
2021/10/05 05:08:54;;;;;;;24.30;10.97;;;;;;;14.16;95.63;95760.59;5056138;28;20204;-75
2021/10/05 05:11:20;;;;;;;30.40;11.73;;;;;;;14.17;95.37;95763.03;5056472;28;20197;-75
2021/10/05 05:13:47;;;;;;;20.83;10.70;;;;;;;14.06;95.63;95760.19;5055687;28;20224;-75
2021/10/05 05:16:14;;;;;;;21.90;10.40;;;;;;;14.29;94.50;95741.97;5055596;28;20668;-75
2021/10/05 05:18:40;;;;;;;24.43;11.30;;;;;;;14.35;94.61;95743.78;5055706;28;20219;-75
2021/10/05 05:21:08;;;;;;;24.90;11.68;;;;;;;14.68;93.94;95751.31;5056063;28;20235;-75
2021/10/05 05:23:34;;;;;;;24.80;11.27;;;;;;;14.55;94.06;95749.78;5055851;28;20224;-75
2021/10/05 05:26:01;;;;;;;23.03;10.67;;;;;;;14.60;94.87;95744.66;5055697;28;20208;-72
2021/10/05 05:28:28;;;;;;;22.30;10.73;;;;;;;14.56;95.02;95736.34;5055924;28;20207;-72
2021/10/05 05:30:55;;;;;;;23.42;11.43;;;;;;;14.60;95.29;95716.31;5056739;28;20196;-72
2021/10/05 05:33:21;;;;;;;20.80;9.83;;;;;;;14.58;94.87;95713.06;5056086;28;20220;-73
2021/10/05 05:35:49;;;;;;;20.67;10.05;;;;;;;14.60;93.67;95711.00;5055324;28;20227;-72
2021/10/05 05:38:17;;;;;;;21.85;10.20;;;;;;;14.85;94.10;95709.19;5055554;28;20620;-73
2021/10/05 05:40:43;;;;;;;20.52;10.23;;;;;;;14.63;94.42;95715.06;5056131;28;20228;-72
2021/10/05 05:43:09;;;;;;;20.20;10.00;;;;;;;14.65;94.29;95717.28;5056021;28;20228;-73
2021/10/05 05:45:36;;;;;;;21.00;9.98;;;;;;;14.59;93.42;95727.09;5055518;28;20573;-72
2021/10/05 05:48:03;;;;;;;18.30;9.40;;;;;;;14.63;93.43;95737.88;5055843;28;20963;-72
2021/10/05 05:50:30;;;;;;;21.75;10.10;;;;;;;14.72;93.91;95736.59;5055978;28;20208;-72
2021/10/05 05:52:56;;;;;;;22.70;9.73;;;;;;;14.66;93.71;95734.00;5055605;28;20228;-72
2021/10/05 05:55:24;;;;;;;21.30;9.70;;;;;;;14.72;93.41;95726.00;5055174;28;20219;-72
2021/10/05 05:57:51;;;;;;;17.00;8.85;;;;;;;14.61;91.73;95722.41;5055641;28;20216;-72
2021/10/05 06:00:18;;;;;;;19.73;10.10;;;;;;;14.36;92.98;95725.00;5055380;28;20204;-72
2021/10/05 06:02:44;;;;;;;21.60;10.50;;;;;;;14.24;94.58;95741.78;5055813;28;20209;-72
2021/10/05 06:05:11;;;;;;;18.48;9.73;;;;;;;14.12;95.70;95748.78;5055364;28;20211;-72
2021/10/05 06:07:38;;;;;;;21.00;10.40;;;;;;;14.21;95.73;95747.53;5055455;28;20208;-72
2021/10/05 06:10:06;;;;;;;17.80;9.05;;;;;;;14.07;96.08;95743.25;5057548;28;20209;-72
2021/10/05 06:12:38;;;;;;;22.57;10.93;;;;;;;14.07;97.02;95737.97;5059748;28;20192;-72
2021/10/05 06:15:06;;;;;;;20.90;10.15;;;;;;;13.98;97.67;95741.06;5058831;28;20367;-72
2021/10/05 06:17:33;;;;;;;18.53;9.10;;;;;;;13.99;97.22;95732.91;5058742;28;20197;-72
2021/10/05 06:19:59;;;;;;;20.17;9.80;;;;;;;13.96;97.61;95735.97;5058977;28;20212;-72
2021/10/05 06:22:26;;;;;;;20.43;10.00;;;;;;;13.62;99.03;95736.28;5059059;28;20221;-72
2021/10/05 06:24:52;;;;;;;24.30;9.27;;;;;;;13.91;97.83;95741.06;5058755;28;20665;-72
2021/10/05 06:27:19;;;;;;;19.47;9.60;;;;;;;14.12;97.08;95739.00;5058218;28;20204;-72
2021/10/05 06:29:46;;;;;;;19.83;9.30;;;;;;;14.28;97.17;95727.09;5059450;28;20212;-72
2021/10/05 06:32:13;;;;;;;19.90;9.40;;;;;;;14.04;96.78;95731.25;5058470;28;20197;-72
2021/10/05 06:34:39;;;;;;;20.00;10.00;;;;;;;13.97;97.38;95739.44;5058835;28;20365;-72
2021/10/05 06:37:06;;;;;;;19.80;9.65;;;;;;;14.16;96.55;95747.34;5057550;28;20212;-72
2021/10/05 06:39:32;;;;;;;23.25;10.63;;;;;;;13.93;98.11;95749.63;5059074;28;20196;-75
2021/10/05 06:41:59;;;;;;;22.53;10.23;;;;;;;13.81;99.51;95747.81;5058812;28;20224;-74
2021/10/05 06:44:25;;;;;;;21.80;10.55;;;;;;;14.06;98.44;95741.63;5058393;28;20231;-75
2021/10/05 06:46:53;;;;;;;25.30;10.50;;;;;;;14.00;99.54;95747.75;5058111;28;20680;-75
2021/10/05 06:49:20;;;;;;;23.03;11.27;;;;;;;14.35;97.21;95759.69;5058927;28;20223;-73
2021/10/05 06:51:46;;;;;;;15.93;7.60;;;;;;;13.89;97.93;95759.03;5058450;28;20220;-74
2021/10/05 06:54:13;;;;;;;23.35;10.18;;;;;;;13.97;98.08;95758.78;5058466;28;20279;-74
2021/10/05 06:56:39;;;;;;;21.60;10.80;;;;;;;14.14;97.37;95749.38;5058444;28;20209;-73
2021/10/05 06:59:06;;;;;;;21.13;10.30;;;;;;;14.50;95.70;95746.94;5058461;28;20208;-74
2021/10/05 07:01:32;;;;;;;21.77;10.23;;;;;;;14.52;96.29;95745.72;5057601;28;20221;-74
2021/10/05 07:04:00;;;;;;;21.73;10.43;;;;;;;14.88;95.45;95759.97;5058820;28;20232;-74
2021/10/05 07:06:26;;;;;;;27.70;10.98;;;;;;;14.71;95.72;95760.69;5056781;28;20201;-74
2021/10/05 07:08:54;;;;;;;25.77;11.18;;;;;;;14.52;95.92;95758.97;5058858;28;20200;-74
2021/10/05 07:11:21;;;;;;;22.63;10.40;;;;;;;14.66;95.73;95756.06;5058028;28;20201;-74
2021/10/05 07:13:47;;;;;;;23.58;11.10;;;;;;;14.84;94.41;95745.53;5058100;28;20235;-74
2021/10/05 07:16:14;;;;;;;24.52;11.63;;;;;;;14.86;94.42;95742.66;5056951;28;20200;-74
2021/10/05 07:18:40;;;;;;;23.83;12.00;;;;;;;14.74;94.27;95750.47;5058814;28;20671;-74
2021/10/05 07:21:08;;;;;;;21.70;11.37;;;;;;;15.10;94.29;95749.81;5056768;28;20251;-74
2021/10/05 07:23:35;;;;;;;25.80;12.20;;;;;;;14.97;94.38;95764.00;5058065;28;20228;-74
2021/10/05 07:26:01;;;;;;;22.80;11.10;;;;;;;15.08;94.54;95770.44;5057362;28;20200;-74
2021/10/05 07:28:28;;;;;;;25.90;12.20;;;;;;;15.00;93.36;95770.72;5058162;28;20200;-74
2021/10/05 07:30:54;;;;;;;20.90;11.18;;;;;;;15.09;93.13;95767.56;5057942;28;20684;-74
2021/10/05 07:33:23;;;;;;;19.67;9.75;;;;;;;14.56;94.27;95772.63;5057523;28;20596;-74
2021/10/05 07:35:50;;;;;;;23.30;10.75;;;;;;;14.63;94.56;95770.75;5057054;28;20680;-74
2021/10/05 07:38:17;;;;;;;22.30;11.20;;;;;;;15.00;94.20;95766.22;5056124;28;20894;-73
2021/10/05 07:40:44;;;;;;;21.92;10.82;;;;;;;14.73;94.77;95774.56;5056576;28;20649;-74
2021/10/05 07:43:10;;;;;;;23.17;10.77;;;;;;;14.80;93.82;95775.34;5057292;28;20224;-74
2021/10/05 07:45:38;;;;;;;21.20;11.32;;;;;;;14.51;95.06;95769.78;5056675;28;20208;-74
2021/10/05 07:48:05;;;;;;;19.50;10.37;;;;;;;14.63;94.90;95763.59;5056512;28;20270;-74
2021/10/05 07:50:32;;;;;;;22.30;10.25;;;;;;;14.63;95.48;95764.41;5057753;28;20987;-74
2021/10/05 07:53:00;;;;;;;20.25;10.65;;;;;;;14.76;95.33;95761.66;5054826;28;20224;-74
2021/10/05 07:55:30;;;;;;;25.55;10.80;;;;;;;14.94;95.05;95759.13;5056229;28;20204;-74
2021/10/05 07:57:57;;;;;;;21.67;10.85;;;;;;;15.37;92.58;95752.06;5056567;28;20204;-74
2021/10/05 08:00:24;;;;;;;20.58;10.48;;;;;;;15.58;91.01;95751.66;5057940;28;20627;-74
2021/10/05 08:02:50;;;;;;;25.40;11.70;;;;;;;15.86;90.76;95748.31;5057052;28;20588;-74
2021/10/05 08:05:17;;;;;;;20.75;10.65;;;;;;;15.68;90.14;95730.72;5057278;28;20215;-74
2021/10/05 08:07:44;;;;;;;21.70;11.05;;;;;;;15.97;88.99;95728.97;5056617;28;20204;-74
2021/10/05 08:10:11;;;;;;;21.83;11.32;;;;;;;15.99;89.85;95716.25;5057438;28;20700;-74
2021/10/05 08:12:40;;;;;;;22.75;10.32;;;;;;;15.97;87.43;95728.97;5056758;28;20204;-74
2021/10/05 08:15:08;;;;;;;21.23;10.98;;;;;;;16.23;88.02;95733.97;5057444;28;20262;-74
2021/10/05 08:17:34;;;;;;;17.98;9.82;;;;;;;15.76;86.43;95733.09;5056720;28;20209;-74
2021/10/05 08:20:02;;;;;;;22.55;10.98;;;;;;;16.00;86.25;95733.84;5053845;28;20205;-74
2021/10/05 08:22:28;;;;;;;21.65;10.65;;;;;;;15.91;87.36;95732.50;5056622;28;20220;-74
2021/10/05 08:24:55;;;;;;;18.27;9.60;;;;;;;16.31;86.47;95727.56;5057413;28;20577;-74
2021/10/05 08:27:21;;;;;;;20.08;9.98;;;;;;;16.06;87.37;95732.13;5055207;28;20201;-74
2021/10/05 08:29:52;;;;;;;14.40;8.40;;;;;;;16.11;84.53;95730.41;5057407;28;21197;-74
2021/10/05 08:32:18;;;;;;;15.88;8.23;;;;;;;15.89;85.91;95731.09;5056170;28;20324;-74
2021/10/05 08:34:45;;;;;;;15.65;8.48;;;;;;;15.78;86.24;95729.16;5056764;28;20224;-74
2021/10/05 08:37:11;;;;;;;14.68;8.18;;;;;;;16.04;85.40;95719.06;5055702;28;20579;-74
2021/10/05 08:39:38;;;;;;;14.18;7.60;;;;;;;16.19;84.89;95722.16;5057196;28;20208;-74
2021/10/05 08:42:05;;;;;;;17.52;8.80;;;;;;;16.19;85.23;95727.47;5057062;28;20220;-74
2021/10/05 08:44:32;;;;;;;15.85;8.18;;;;;;;16.19;84.78;95724.81;5056142;28;20227;-74
2021/10/05 08:47:00;;;;;;;15.65;8.57;;;;;;;16.06;84.63;95726.81;5056229;28;20216;-74
2021/10/05 08:49:26;;;;;;;17.02;8.27;;;;;;;15.85;83.58;95727.28;5056261;28;20197;-74
2021/10/05 08:51:56;;;;;;;16.02;7.85;;;;;;;16.40;84.17;95729.69;5056854;28;20200;-74
2021/10/05 08:54:23;;;;;;;15.80;8.27;;;;;;;15.82;85.20;95732.22;5056482;28;20231;-74
2021/10/05 08:56:49;;;;;;;14.85;8.15;;;;;;;15.91;84.94;95723.72;5056392;28;20204;-74
2021/10/05 08:59:16;;;;;;;14.50;7.13;;;;;;;15.37;86.63;95731.63;5056603;28;20205;-73
2021/10/05 09:01:43;;;;;;;16.23;8.48;;;;;;;15.71;86.50;95728.44;5057339;28;20270;-73
2021/10/05 09:04:11;;;;;;;16.65;8.68;;;;;;;16.02;85.38;95731.75;5056395;28;20224;-74
2021/10/05 09:06:38;;;;;;;13.80;7.57;;;;;;;15.87;84.47;95733.16;5056113;28;20207;-74
2021/10/05 09:09:06;;;;;;;15.60;8.68;;;;;;;15.97;85.33;95731.63;5056728;28;20274;-74
2021/10/05 09:11:41;;;;;;;15.82;8.27;;;;;;;16.37;85.48;95731.97;5057138;28;20293;-74
2021/10/05 09:14:09;;;;;;;15.05;8.45;;;;;;;16.23;85.29;95735.78;5056172;28;20599;-74
2021/10/05 09:16:35;;;;;;;14.38;7.95;;;;;;;16.36;84.42;95731.19;5056374;28;20760;-74
2021/10/05 09:19:04;;;;;;;15.15;8.02;;;;;;;16.57;85.18;95734.16;5056918;28;20201;-74
2021/10/05 09:21:34;;;;;;;17.30;7.63;;;;;;;16.44;83.97;95725.53;5054536;28;20211;-74
2021/10/05 09:24:03;;;;;;;16.02;8.25;;;;;;;16.50;82.04;95735.28;5056498;28;20239;-74
2021/10/05 09:26:38;;;;;;;16.05;8.93;;;;;;;16.50;84.08;95741.41;5055443;28;20928;-74
2021/10/05 09:29:14;;;;;;;16.73;9.02;;;;;;;16.56;83.39;95737.06;5056012;28;20200;-74
2021/10/05 09:31:55;;;;;;;13.63;7.30;;;;;;;16.85;84.76;95729.06;5056678;28;20204;-74
2021/10/05 09:34:33;;;;;;;12.35;7.00;;;;;;;16.22;84.03;95736.84;5055837;28;20223;-74
2021/10/05 09:37:05;;;;;;;16.77;7.75;;;;;;;16.24;84.63;95735.59;5055348;28;20701;-74
2021/10/05 09:39:37;;;;;;;14.20;7.53;;;;;;;16.24;85.21;95732.13;5055754;28;20205;-74
2021/10/05 09:42:04;;;;;;;13.98;7.30;;;;;;;15.89;86.04;95742.53;5056214;28;20232;-74
2021/10/05 09:44:30;;;;;;;18.05;7.85;;;;;;;15.78;87.43;95734.47;5058634;28;20227;-74
2021/10/05 09:46:56;;;;;;;15.18;7.15;;;;;;;15.89;86.02;95731.09;5059701;28;20211;-73
2021/10/05 09:49:24;;;;;;;13.07;6.75;;;;;;;16.30;84.53;95740.03;5059781;28;20591;-74
2021/10/05 09:51:58;;;;;;;13.45;7.10;;;;;;;16.50;84.14;95733.41;5060055;28;20208;-74
2021/10/05 09:54:27;;;;;;;14.68;7.60;;;;;;;16.74;84.58;95737.00;5060734;28;20226;-74
2021/10/05 09:56:55;;;;;;;17.13;8.27;;;;;;;16.39;84.93;95733.38;5059392;28;20211;-74
2021/10/05 09:59:22;;;;;;;13.75;6.72;;;;;;;16.37;84.83;95729.31;5059769;28;20266;-74
2021/10/05 10:01:48;;;;;;;13.82;7.18;;;;;;;16.42;84.69;95722.31;5059314;28;20220;-74
2021/10/05 10:04:16;;;;;;;14.50;7.45;;;;;;;16.54;84.50;95725.81;5059949;28;20229;-74
2021/10/05 10:06:43;;;;;;;16.52;8.27;;;;;;;16.73;84.69;95722.88;5058243;28;20215;-73
2021/10/05 10:09:11;;;;;;;21.40;9.13;;;;;;;16.32;84.35;95722.03;5059403;28;20200;-73
2021/10/05 10:11:38;;;;;;;17.40;8.60;;;;;;;16.11;85.92;95730.41;5059412;28;20224;-73
2021/10/05 10:14:05;;;;;;;17.90;8.80;;;;;;;16.14;86.27;95731.81;5060177;28;20228;-73
2021/10/05 10:16:35;;;;;;;21.42;9.52;;;;;;;16.41;86.05;95726.00;5059148;28;20201;-73
2021/10/05 10:19:03;;;;;;;16.02;8.43;;;;;;;16.07;86.53;95739.88;5060358;28;20262;-73
2021/10/05 10:21:32;;;;;;;17.80;8.88;;;;;;;16.17;85.80;95729.53;5056746;28;20207;-73
2021/10/05 10:24:08;;;;;;;18.35;9.05;;;;;;;16.03;86.48;95728.06;5060183;28;20329;-73
2021/10/05 10:26:36;;;;;;;17.48;8.55;;;;;;;16.02;87.01;95728.28;5059010;28;20204;-73
2021/10/05 10:29:05;;;;;;;16.20;9.27;;;;;;;16.24;86.87;95734.78;5059397;28;20291;-73
2021/10/05 10:31:33;;;;;;;19.08;9.43;;;;;;;16.01;87.63;95730.16;5059693;28;20200;-73
2021/10/05 10:34:00;;;;;;;18.08;9.05;;;;;;;16.16;86.84;95730.56;5059612;28;20259;-73
2021/10/05 10:36:31;;;;;;;19.27;9.27;;;;;;;16.24;86.70;95724.97;5058947;28;20209;-73
2021/10/05 10:39:06;;;;;;;16.65;8.60;;;;;;;16.61;86.22;95726.53;5059602;28;20687;-73
2021/10/05 10:41:33;;;;;;;19.83;9.60;;;;;;;16.01;87.14;95727.50;5059411;28;20200;-73
2021/10/05 10:44:03;;;;;;;18.48;9.50;;;;;;;16.30;87.11;95724.09;5059296;28;20235;-73
2021/10/05 10:46:34;;;;;;;18.60;9.80;;;;;;;16.32;87.28;95727.34;5059106;28;20240;-73
2021/10/05 10:49:02;;;;;;;20.90;9.85;;;;;;;16.71;85.00;95719.66;5059671;28;20315;-73
2021/10/05 10:51:32;;;;;;;16.83;9.60;;;;;;;16.53;85.71;95725.03;5058754;28;20215;-73
2021/10/05 10:54:00;;;;;;;16.92;9.30;;;;;;;16.67;85.16;95728.28;5059082;28;20787;-73
2021/10/05 10:56:32;;;;;;;26.25;14.32;;;;;;;16.87;84.89;95718.19;5056934;28;20196;-73
2021/10/05 10:59:00;;;;;;;16.90;9.32;;;;;;;16.83;84.70;95714.34;5058781;28;20205;-73
2021/10/05 11:01:39;;;;;;;19.27;9.88;;;;;;;17.18;83.01;95718.69;5058604;28;20568;-73
2021/10/05 11:04:08;;;;;;;16.00;9.30;;;;;;;17.19;83.10;95712.31;5058603;28;20671;-73
2021/10/05 11:06:35;;;;;;;13.50;7.13;;;;;;;16.91;82.32;95714.81;5058751;28;20215;-73
2021/10/05 11:09:03;;;;;;;15.43;8.00;;;;;;;17.01;84.00;95716.94;5058858;28;20212;-73
2021/10/05 11:11:32;;;;;;;14.68;8.68;;;;;;;17.31;83.93;95719.31;5059109;28;20205;-74
2021/10/05 11:14:01;;;;;;;12.82;7.38;;;;;;;17.10;82.77;95727.00;5057872;28;20220;-73
2021/10/05 11:16:28;;;;;;;15.85;8.32;;;;;;;17.63;82.29;95717.13;5056864;28;20868;-74
2021/10/05 11:19:05;;;;;;;13.32;7.32;;;;;;;17.76;80.94;95712.38;5058794;28;20207;-73
2021/10/05 11:21:32;;;;;;;9.55;4.20;;;;;;;17.21;81.98;95708.41;5055156;28;20702;-73